sensor_id;sensor_type;location;lat;lon;timestamp;temperature;humidity
2867;DHT22;1441;48.886;8.728;2023-01-23T00:01:05;1.50;99.90
2867;DHT22;1441;48.886;8.728;2023-01-23T00:03:32;1.50;99.90
2867;DHT22;1441;48.886;8.728;2023-01-23T00:06:07;1.40;99.90
2867;DHT22;1441;48.886;8.728;2023-01-23T00:08:34;1.50;99.90
2867;DHT22;1441;48.886;8.728;2023-01-23T00:11:02;1.50;99.90
2867;DHT22;1441;48.886;8.728;2023-01-23T00:13:28;1.50;99.90
2867;DHT22;1441;48.886;8.728;2023-01-23T00:15:53;1.60;99.90
2867;DHT22;1441;48.886;8.728;2023-01-23T00:18:19;1.60;99.90
2867;DHT22;1441;48.886;8.728;2023-01-23T00:20:45;1.50;99.90
2867;DHT22;1441;48.886;8.728;2023-01-23T00:23:10;1.50;99.90
2867;DHT22;1441;48.886;8.728;2023-01-23T00:25:36;1.40;99.90
2867;DHT22;1441;48.886;8.728;2023-01-23T00:28:02;1.40;99.90
2867;DHT22;1441;48.886;8.728;2023-01-23T00:30:28;1.30;99.90
2867;DHT22;1441;48.886;8.728;2023-01-23T00:32:54;1.40;99.90
2867;DHT22;1441;48.886;8.728;2023-01-23T00:35:20;1.50;99.90
2867;DHT22;1441;48.886;8.728;2023-01-23T00:37:45;1.60;99.90
2867;DHT22;1441;48.886;8.728;2023-01-23T00:40:11;1.60;99.90
2867;DHT22;1441;48.886;8.728;2023-01-23T00:42:37;1.70;99.90
2867;DHT22;1441;48.886;8.728;2023-01-23T00:45:03;1.70;99.90
2867;DHT22;1441;48.886;8.728;2023-01-23T00:47:29;1.80;99.90
2867;DHT22;1441;48.886;8.728;2023-01-23T00:49:55;1.70;99.90
2867;DHT22;1441;48.886;8.728;2023-01-23T00:52:23;1.70;99.90
2867;DHT22;1441;48.886;8.728;2023-01-23T00:54:49;1.60;99.90
2867;DHT22;1441;48.886;8.728;2023-01-23T00:57:14;1.70;99.90
2867;DHT22;1441;48.886;8.728;2023-01-23T00:59:40;1.60;99.90
2867;DHT22;1441;48.886;8.728;2023-01-23T01:02:06;1.60;99.90
2867;DHT22;1441;48.886;8.728;2023-01-23T01:04:31;1.60;99.90
2867;DHT22;1441;48.886;8.728;2023-01-23T01:06:57;1.60;99.90
2867;DHT22;1441;48.886;8.728;2023-01-23T01:09:23;1.50;99.90
2867;DHT22;1441;48.886;8.728;2023-01-23T01:11:49;1.60;99.90
2867;DHT22;1441;48.886;8.728;2023-01-23T01:14:15;1.50;99.90
2867;DHT22;1441;48.886;8.728;2023-01-23T01:16:40;1.50;99.90
2867;DHT22;1441;48.886;8.728;2023-01-23T01:19:10;1.50;99.90
2867;DHT22;1441;48.886;8.728;2023-01-23T01:21:36;1.50;99.90
2867;DHT22;1441;48.886;8.728;2023-01-23T01:24:04;1.40;99.90
2867;DHT22;1441;48.886;8.728;2023-01-23T01:26:29;1.40;99.90
2867;DHT22;1441;48.886;8.728;2023-01-23T01:28:55;1.50;99.90
2867;DHT22;1441;48.886;8.728;2023-01-23T01:31:21;1.50;99.90
2867;DHT22;1441;48.886;8.728;2023-01-23T01:33:47;1.50;99.90
2867;DHT22;1441;48.886;8.728;2023-01-23T01:36:16;1.50;99.90
2867;DHT22;1441;48.886;8.728;2023-01-23T01:38:42;1.60;99.90
2867;DHT22;1441;48.886;8.728;2023-01-23T01:41:08;1.50;99.90
2867;DHT22;1441;48.886;8.728;2023-01-23T01:43:34;1.40;99.90
2867;DHT22;1441;48.886;8.728;2023-01-23T01:46:19;1.40;99.90
2867;DHT22;1441;48.886;8.728;2023-01-23T01:54:09;1.30;99.90
2867;DHT22;1441;48.886;8.728;2023-01-23T01:56:43;1.50;99.90
2867;DHT22;1441;48.886;8.728;2023-01-23T01:59:12;1.60;99.90
2867;DHT22;1441;48.886;8.728;2023-01-23T02:01:39;1.60;99.90
2867;DHT22;1441;48.886;8.728;2023-01-23T02:04:05;1.60;99.90
2867;DHT22;1441;48.886;8.728;2023-01-23T02:06:32;1.60;99.90
2867;DHT22;1441;48.886;8.728;2023-01-23T02:08:59;1.50;99.90
2867;DHT22;1441;48.886;8.728;2023-01-23T02:11:26;1.60;99.90
2867;DHT22;1441;48.886;8.728;2023-01-23T02:13:52;1.60;99.90
2867;DHT22;1441;48.886;8.728;2023-01-23T02:16:22;1.60;99.90
2867;DHT22;1441;48.886;8.728;2023-01-23T02:18:52;1.60;99.90
2867;DHT22;1441;48.886;8.728;2023-01-23T02:21:20;1.50;99.90
2867;DHT22;1441;48.886;8.728;2023-01-23T02:26:19;1.60;99.90
2867;DHT22;1441;48.886;8.728;2023-01-23T02:28:47;1.60;99.90
2867;DHT22;1441;48.886;8.728;2023-01-23T02:31:13;1.50;99.90
2867;DHT22;1441;48.886;8.728;2023-01-23T02:33:41;1.50;99.90
2867;DHT22;1441;48.886;8.728;2023-01-23T02:36:07;1.50;99.90
2867;DHT22;1441;48.886;8.728;2023-01-23T02:38:44;1.50;99.90
2867;DHT22;1441;48.886;8.728;2023-01-23T02:41:12;1.50;99.90
2867;DHT22;1441;48.886;8.728;2023-01-23T02:43:38;1.50;99.90
2867;DHT22;1441;48.886;8.728;2023-01-23T02:46:09;1.50;99.90
2867;DHT22;1441;48.886;8.728;2023-01-23T02:48:38;1.50;99.90
2867;DHT22;1441;48.886;8.728;2023-01-23T02:51:05;1.50;99.90
2867;DHT22;1441;48.886;8.728;2023-01-23T02:53:31;1.50;99.90
2867;DHT22;1441;48.886;8.728;2023-01-23T02:55:57;1.40;99.90
2867;DHT22;1441;48.886;8.728;2023-01-23T02:58:25;1.40;99.90
2867;DHT22;1441;48.886;8.728;2023-01-23T03:01:10;1.40;99.90
2867;DHT22;1441;48.886;8.728;2023-01-23T03:03:36;1.50;99.90
2867;DHT22;1441;48.886;8.728;2023-01-23T03:06:02;1.50;99.90
2867;DHT22;1441;48.886;8.728;2023-01-23T03:08:30;1.50;99.90
2867;DHT22;1441;48.886;8.728;2023-01-23T03:11:01;1.50;99.90
2867;DHT22;1441;48.886;8.728;2023-01-23T03:13:27;1.50;99.90
2867;DHT22;1441;48.886;8.728;2023-01-23T03:15:54;1.50;99.90
2867;DHT22;1441;48.886;8.728;2023-01-23T03:18:22;1.50;99.90
2867;DHT22;1441;48.886;8.728;2023-01-23T03:20:48;1.60;99.90
2867;DHT22;1441;48.886;8.728;2023-01-23T03:23:13;1.70;99.90
2867;DHT22;1441;48.886;8.728;2023-01-23T03:25:42;1.60;99.90
2867;DHT22;1441;48.886;8.728;2023-01-23T03:28:09;1.60;99.90
2867;DHT22;1441;48.886;8.728;2023-01-23T03:30:54;1.60;99.90
2867;DHT22;1441;48.886;8.728;2023-01-23T03:33:20;1.50;99.90
2867;DHT22;1441;48.886;8.728;2023-01-23T03:35:45;1.60;99.90
2867;DHT22;1441;48.886;8.728;2023-01-23T03:38:11;1.60;99.90
2867;DHT22;1441;48.886;8.728;2023-01-23T03:40:38;1.60;99.90
2867;DHT22;1441;48.886;8.728;2023-01-23T03:43:22;1.50;99.90
2867;DHT22;1441;48.886;8.728;2023-01-23T03:45:48;1.50;99.90
2867;DHT22;1441;48.886;8.728;2023-01-23T03:48:13;1.60;99.90
2867;DHT22;1441;48.886;8.728;2023-01-23T03:50:39;1.60;99.90
2867;DHT22;1441;48.886;8.728;2023-01-23T03:53:04;1.60;99.90
2867;DHT22;1441;48.886;8.728;2023-01-23T03:55:30;1.60;99.90
2867;DHT22;1441;48.886;8.728;2023-01-23T03:57:55;1.70;99.90
2867;DHT22;1441;48.886;8.728;2023-01-23T04:00:21;1.60;99.90
2867;DHT22;1441;48.886;8.728;2023-01-23T04:02:46;1.60;99.90
2867;DHT22;1441;48.886;8.728;2023-01-23T04:05:12;1.50;99.90
2867;DHT22;1441;48.886;8.728;2023-01-23T04:07:38;1.50;99.90
2867;DHT22;1441;48.886;8.728;2023-01-23T04:10:03;1.40;99.90
2867;DHT22;1441;48.886;8.728;2023-01-23T04:12:29;1.50;99.90
2867;DHT22;1441;48.886;8.728;2023-01-23T04:14:55;1.60;99.90
2867;DHT22;1441;48.886;8.728;2023-01-23T04:17:20;1.60;99.90
2867;DHT22;1441;48.886;8.728;2023-01-23T04:19:46;1.60;99.90
2867;DHT22;1441;48.886;8.728;2023-01-23T04:22:11;1.60;99.90
2867;DHT22;1441;48.886;8.728;2023-01-23T04:24:37;1.60;99.90
2867;DHT22;1441;48.886;8.728;2023-01-23T04:27:03;1.50;99.90
2867;DHT22;1441;48.886;8.728;2023-01-23T04:29:28;1.50;99.90
2867;DHT22;1441;48.886;8.728;2023-01-23T04:31:54;1.50;99.90
2867;DHT22;1441;48.886;8.728;2023-01-23T04:34:19;1.50;99.90
2867;DHT22;1441;48.886;8.728;2023-01-23T04:36:45;1.60;99.90
2867;DHT22;1441;48.886;8.728;2023-01-23T04:39:10;1.60;99.90
2867;DHT22;1441;48.886;8.728;2023-01-23T04:41:36;1.60;99.90
2867;DHT22;1441;48.886;8.728;2023-01-23T04:44:02;1.60;99.90
2867;DHT22;1441;48.886;8.728;2023-01-23T04:46:47;1.50;99.90
2867;DHT22;1441;48.886;8.728;2023-01-23T04:49:17;1.40;99.90
2867;DHT22;1441;48.886;8.728;2023-01-23T04:51:44;1.50;99.90
2867;DHT22;1441;48.886;8.728;2023-01-23T04:54:10;1.50;99.90
2867;DHT22;1441;48.886;8.728;2023-01-23T04:56:36;1.60;99.90
2867;DHT22;1441;48.886;8.728;2023-01-23T04:59:02;1.60;99.90
2867;DHT22;1441;48.886;8.728;2023-01-23T05:01:28;1.70;99.90
2867;DHT22;1441;48.886;8.728;2023-01-23T05:03:53;1.70;99.90
2867;DHT22;1441;48.886;8.728;2023-01-23T05:06:19;1.70;99.90
2867;DHT22;1441;48.886;8.728;2023-01-23T05:08:45;1.70;99.90
2867;DHT22;1441;48.886;8.728;2023-01-23T05:11:11;1.80;99.90
2867;DHT22;1441;48.886;8.728;2023-01-23T05:13:36;1.70;99.90
2867;DHT22;1441;48.886;8.728;2023-01-23T05:16:02;1.60;99.90
2867;DHT22;1441;48.886;8.728;2023-01-23T05:18:28;1.50;99.90
2867;DHT22;1441;48.886;8.728;2023-01-23T05:20:53;1.50;99.90
2867;DHT22;1441;48.886;8.728;2023-01-23T05:23:19;1.50;99.90
2867;DHT22;1441;48.886;8.728;2023-01-23T05:25:45;1.50;99.90
2867;DHT22;1441;48.886;8.728;2023-01-23T05:28:11;1.50;99.90
2867;DHT22;1441;48.886;8.728;2023-01-23T05:30:36;1.40;99.90
2867;DHT22;1441;48.886;8.728;2023-01-23T05:33:02;1.40;99.90
2867;DHT22;1441;48.886;8.728;2023-01-23T05:35:28;1.30;99.90
2867;DHT22;1441;48.886;8.728;2023-01-23T05:37:53;1.40;99.90
2867;DHT22;1441;48.886;8.728;2023-01-23T05:40:20;1.30;99.90
2867;DHT22;1441;48.886;8.728;2023-01-23T05:42:46;1.20;99.90
2867;DHT22;1441;48.886;8.728;2023-01-23T05:45:12;1.10;99.90
2867;DHT22;1441;48.886;8.728;2023-01-23T05:47:38;1.10;99.90
2867;DHT22;1441;48.886;8.728;2023-01-23T05:50:05;1.10;99.90
2867;DHT22;1441;48.886;8.728;2023-01-23T05:52:32;1.10;99.90
2867;DHT22;1441;48.886;8.728;2023-01-23T05:54:58;1.10;99.90
2867;DHT22;1441;48.886;8.728;2023-01-23T05:57:23;1.20;99.90
2867;DHT22;1441;48.886;8.728;2023-01-23T05:59:49;1.10;99.90
2867;DHT22;1441;48.886;8.728;2023-01-23T06:02:15;1.20;99.90
2867;DHT22;1441;48.886;8.728;2023-01-23T06:04:40;1.20;99.90
2867;DHT22;1441;48.886;8.728;2023-01-23T06:07:13;1.30;99.90
2867;DHT22;1441;48.886;8.728;2023-01-23T06:09:39;1.20;99.90
2867;DHT22;1441;48.886;8.728;2023-01-23T06:12:04;1.20;99.90
2867;DHT22;1441;48.886;8.728;2023-01-23T06:14:30;1.20;99.90
2867;DHT22;1441;48.886;8.728;2023-01-23T06:16:56;1.30;99.90
2867;DHT22;1441;48.886;8.728;2023-01-23T06:19:21;1.30;99.90
2867;DHT22;1441;48.886;8.728;2023-01-23T06:21:47;1.20;99.90
2867;DHT22;1441;48.886;8.728;2023-01-23T06:24:12;1.30;99.90
2867;DHT22;1441;48.886;8.728;2023-01-23T06:26:38;1.30;99.90
2867;DHT22;1441;48.886;8.728;2023-01-23T06:29:03;1.40;99.90
2867;DHT22;1441;48.886;8.728;2023-01-23T06:31:29;1.40;99.90
2867;DHT22;1441;48.886;8.728;2023-01-23T06:33:57;1.40;99.90
2867;DHT22;1441;48.886;8.728;2023-01-23T06:36:23;1.40;99.90
2867;DHT22;1441;48.886;8.728;2023-01-23T06:38:49;1.40;99.90
2867;DHT22;1441;48.886;8.728;2023-01-23T06:41:14;1.50;99.90
2867;DHT22;1441;48.886;8.728;2023-01-23T06:43:40;1.50;99.90
2867;DHT22;1441;48.886;8.728;2023-01-23T06:46:09;1.50;99.90
2867;DHT22;1441;48.886;8.728;2023-01-23T06:48:36;1.50;99.90
2867;DHT22;1441;48.886;8.728;2023-01-23T06:51:02;1.50;99.90
2867;DHT22;1441;48.886;8.728;2023-01-23T06:53:28;1.50;99.90
2867;DHT22;1441;48.886;8.728;2023-01-23T06:56:01;1.50;99.90
2867;DHT22;1441;48.886;8.728;2023-01-23T06:58:28;1.50;99.90
2867;DHT22;1441;48.886;8.728;2023-01-23T07:00:53;1.30;99.90
2867;DHT22;1441;48.886;8.728;2023-01-23T07:03:19;1.30;99.90
2867;DHT22;1441;48.886;8.728;2023-01-23T07:05:45;1.20;99.90
2867;DHT22;1441;48.886;8.728;2023-01-23T07:08:10;1.30;99.90
2867;DHT22;1441;48.886;8.728;2023-01-23T07:10:36;1.20;99.90
2867;DHT22;1441;48.886;8.728;2023-01-23T07:13:05;1.10;99.90
2867;DHT22;1441;48.886;8.728;2023-01-23T07:15:32;1.20;99.90
2867;DHT22;1441;48.886;8.728;2023-01-23T07:17:58;1.20;99.90
2867;DHT22;1441;48.886;8.728;2023-01-23T07:20:24;1.30;99.90
2867;DHT22;1441;48.886;8.728;2023-01-23T07:22:53;1.20;99.90
2867;DHT22;1441;48.886;8.728;2023-01-23T07:25:19;1.30;99.90
2867;DHT22;1441;48.886;8.728;2023-01-23T07:27:45;1.20;99.90
2867;DHT22;1441;48.886;8.728;2023-01-23T07:30:11;1.20;99.90
2867;DHT22;1441;48.886;8.728;2023-01-23T07:32:37;1.20;99.90
2867;DHT22;1441;48.886;8.728;2023-01-23T07:35:03;1.20;99.90
2867;DHT22;1441;48.886;8.728;2023-01-23T07:37:28;1.20;99.90
2867;DHT22;1441;48.886;8.728;2023-01-23T07:39:54;1.20;99.90
2867;DHT22;1441;48.886;8.728;2023-01-23T07:42:19;1.10;99.90
2867;DHT22;1441;48.886;8.728;2023-01-23T07:44:45;1.20;99.90
2867;DHT22;1441;48.886;8.728;2023-01-23T07:47:10;1.20;99.90
2867;DHT22;1441;48.886;8.728;2023-01-23T07:49:36;1.20;99.90
2867;DHT22;1441;48.886;8.728;2023-01-23T07:52:02;1.20;99.90
2867;DHT22;1441;48.886;8.728;2023-01-23T07:54:28;1.30;99.90
2867;DHT22;1441;48.886;8.728;2023-01-23T07:56:54;1.30;99.90
2867;DHT22;1441;48.886;8.728;2023-01-23T07:59:19;1.30;99.90
2867;DHT22;1441;48.886;8.728;2023-01-23T08:01:45;1.40;99.90
2867;DHT22;1441;48.886;8.728;2023-01-23T08:04:10;1.40;99.90
2867;DHT22;1441;48.886;8.728;2023-01-23T08:06:36;1.40;99.90
2867;DHT22;1441;48.886;8.728;2023-01-23T08:09:02;1.50;99.90
2867;DHT22;1441;48.886;8.728;2023-01-23T08:11:28;1.50;99.90
2867;DHT22;1441;48.886;8.728;2023-01-23T08:13:53;1.50;99.90
2867;DHT22;1441;48.886;8.728;2023-01-23T08:16:19;1.50;99.90
2867;DHT22;1441;48.886;8.728;2023-01-23T08:18:45;1.50;99.90
2867;DHT22;1441;48.886;8.728;2023-01-23T08:21:11;1.50;99.90
2867;DHT22;1441;48.886;8.728;2023-01-23T08:23:36;1.40;99.90
2867;DHT22;1441;48.886;8.728;2023-01-23T08:26:05;1.40;99.90
2867;DHT22;1441;48.886;8.728;2023-01-23T08:28:31;1.50;99.90
2867;DHT22;1441;48.886;8.728;2023-01-23T08:31:05;1.40;99.90
2867;DHT22;1441;48.886;8.728;2023-01-23T08:33:31;1.30;99.90
2867;DHT22;1441;48.886;8.728;2023-01-23T08:35:59;1.30;99.90
2867;DHT22;1441;48.886;8.728;2023-01-23T08:38:25;1.30;99.90
2867;DHT22;1441;48.886;8.728;2023-01-23T08:40:51;1.20;99.90
2867;DHT22;1441;48.886;8.728;2023-01-23T08:43:18;1.30;99.90
2867;DHT22;1441;48.886;8.728;2023-01-23T08:45:48;1.30;99.90
2867;DHT22;1441;48.886;8.728;2023-01-23T08:48:14;1.40;99.90
2867;DHT22;1441;48.886;8.728;2023-01-23T08:50:40;1.40;99.90
2867;DHT22;1441;48.886;8.728;2023-01-23T08:53:05;1.40;99.90
2867;DHT22;1441;48.886;8.728;2023-01-23T08:55:31;1.40;99.90
2867;DHT22;1441;48.886;8.728;2023-01-23T08:57:57;1.40;99.90
2867;DHT22;1441;48.886;8.728;2023-01-23T09:00:24;1.40;99.90
2867;DHT22;1441;48.886;8.728;2023-01-23T09:02:50;1.40;99.90
2867;DHT22;1441;48.886;8.728;2023-01-23T09:05:16;1.30;99.90
2867;DHT22;1441;48.886;8.728;2023-01-23T09:07:42;1.30;99.90
2867;DHT22;1441;48.886;8.728;2023-01-23T09:10:08;1.30;99.90
2867;DHT22;1441;48.886;8.728;2023-01-23T09:12:34;1.40;99.90
2867;DHT22;1441;48.886;8.728;2023-01-23T09:14:59;1.40;99.90
2867;DHT22;1441;48.886;8.728;2023-01-23T09:17:25;1.40;99.90
2867;DHT22;1441;48.886;8.728;2023-01-23T09:19:51;1.40;99.90
2867;DHT22;1441;48.886;8.728;2023-01-23T09:22:17;1.40;99.90
2867;DHT22;1441;48.886;8.728;2023-01-23T09:24:42;1.40;99.90
2867;DHT22;1441;48.886;8.728;2023-01-23T09:27:08;1.50;99.90
2867;DHT22;1441;48.886;8.728;2023-01-23T09:29:34;1.50;99.90
2867;DHT22;1441;48.886;8.728;2023-01-23T09:32:00;1.50;99.90
2867;DHT22;1441;48.886;8.728;2023-01-23T09:34:27;1.60;99.90
2867;DHT22;1441;48.886;8.728;2023-01-23T09:36:52;1.60;99.90
2867;DHT22;1441;48.886;8.728;2023-01-23T09:39:18;1.60;99.90
2867;DHT22;1441;48.886;8.728;2023-01-23T09:41:45;1.80;99.90
2867;DHT22;1441;48.886;8.728;2023-01-23T09:44:19;1.90;99.90
2867;DHT22;1441;48.886;8.728;2023-01-23T09:46:49;1.90;99.90
2867;DHT22;1441;48.886;8.728;2023-01-23T09:49:43;1.90;99.90
2867;DHT22;1441;48.886;8.728;2023-01-23T09:52:14;2.00;99.90
2867;DHT22;1441;48.886;8.728;2023-01-23T09:54:48;2.00;99.90
2867;DHT22;1441;48.886;8.728;2023-01-23T09:57:32;2.00;99.90
2867;DHT22;1441;48.886;8.728;2023-01-23T10:00:03;1.90;99.90
2867;DHT22;1441;48.886;8.728;2023-01-23T10:02:30;1.90;99.90
2867;DHT22;1441;48.886;8.728;2023-01-23T10:04:57;2.00;99.90
2867;DHT22;1441;48.886;8.728;2023-01-23T10:07:30;2.00;99.90
2867;DHT22;1441;48.886;8.728;2023-01-23T10:13:05;1.80;99.90
2867;DHT22;1441;48.886;8.728;2023-01-23T10:15:55;1.60;99.90
2867;DHT22;1441;48.886;8.728;2023-01-23T10:18:34;1.50;99.90
2867;DHT22;1441;48.886;8.728;2023-01-23T10:26:44;1.60;99.90
2867;DHT22;1441;48.886;8.728;2023-01-23T10:29:59;1.60;99.90
2867;DHT22;1441;48.886;8.728;2023-01-23T10:32:23;1.50;99.90
2867;DHT22;1441;48.886;8.728;2023-01-23T10:35:02;1.50;99.90
2867;DHT22;1441;48.886;8.728;2023-01-23T10:37:50;1.50;99.90
2867;DHT22;1441;48.886;8.728;2023-01-23T10:40:20;1.50;99.90
2867;DHT22;1441;48.886;8.728;2023-01-23T10:43:18;1.50;99.90
2867;DHT22;1441;48.886;8.728;2023-01-23T10:45:45;1.40;99.90
2867;DHT22;1441;48.886;8.728;2023-01-23T10:51:00;1.40;99.90
2867;DHT22;1441;48.886;8.728;2023-01-23T10:53:26;1.50;99.90
2867;DHT22;1441;48.886;8.728;2023-01-23T10:55:56;1.60;99.90
2867;DHT22;1441;48.886;8.728;2023-01-23T10:58:36;1.60;99.90
2867;DHT22;1441;48.886;8.728;2023-01-23T11:01:02;1.60;99.90
2867;DHT22;1441;48.886;8.728;2023-01-23T11:03:32;1.60;99.90
2867;DHT22;1441;48.886;8.728;2023-01-23T11:06:07;1.70;99.90
2867;DHT22;1441;48.886;8.728;2023-01-23T11:08:49;1.80;99.90
2867;DHT22;1441;48.886;8.728;2023-01-23T11:13:43;1.90;99.90
2867;DHT22;1441;48.886;8.728;2023-01-23T11:16:14;2.00;99.90
2867;DHT22;1441;48.886;8.728;2023-01-23T11:18:43;2.00;99.90
2867;DHT22;1441;48.886;8.728;2023-01-23T11:21:28;2.00;99.90
2867;DHT22;1441;48.886;8.728;2023-01-23T11:24:30;2.10;99.90
2867;DHT22;1441;48.886;8.728;2023-01-23T11:27:14;2.10;99.90
2867;DHT22;1441;48.886;8.728;2023-01-23T11:32:13;2.10;99.90
2867;DHT22;1441;48.886;8.728;2023-01-23T11:34:44;2.00;99.90
2867;DHT22;1441;48.886;8.728;2023-01-23T11:37:19;2.10;99.90
2867;DHT22;1441;48.886;8.728;2023-01-23T11:39:53;2.10;99.90
2867;DHT22;1441;48.886;8.728;2023-01-23T11:42:20;2.20;99.60
2867;DHT22;1441;48.886;8.728;2023-01-23T11:44:48;2.30;99.30
2867;DHT22;1441;48.886;8.728;2023-01-23T11:47:37;2.30;99.10
2867;DHT22;1441;48.886;8.728;2023-01-23T11:50:27;2.30;99.50
2867;DHT22;1441;48.886;8.728;2023-01-23T11:53:19;2.50;99.70
2867;DHT22;1441;48.886;8.728;2023-01-23T11:59:17;2.30;98.20
2867;DHT22;1441;48.886;8.728;2023-01-23T12:04:52;2.40;98.00
2867;DHT22;1441;48.886;8.728;2023-01-23T12:07:25;2.50;97.90
2867;DHT22;1441;48.886;8.728;2023-01-23T12:15:58;2.40;98.00
2867;DHT22;1441;48.886;8.728;2023-01-23T12:18:32;2.40;98.00
2867;DHT22;1441;48.886;8.728;2023-01-23T12:21:25;2.30;99.00
2867;DHT22;1441;48.886;8.728;2023-01-23T12:26:18;2.30;98.50
2867;DHT22;1441;48.886;8.728;2023-01-23T12:40:12;2.70;97.80
2867;DHT22;1441;48.886;8.728;2023-01-23T12:42:50;2.70;97.20
2867;DHT22;1441;48.886;8.728;2023-01-23T12:45:21;2.70;97.50
2867;DHT22;1441;48.886;8.728;2023-01-23T12:48:05;2.70;98.30
2867;DHT22;1441;48.886;8.728;2023-01-23T12:53:27;2.50;98.20
2867;DHT22;1441;48.886;8.728;2023-01-23T12:56:03;2.50;98.30
2867;DHT22;1441;48.886;8.728;2023-01-23T12:58:33;2.50;97.90
2867;DHT22;1441;48.886;8.728;2023-01-23T13:09:20;2.60;98.40
2867;DHT22;1441;48.886;8.728;2023-01-23T13:12:00;2.60;98.60
2867;DHT22;1441;48.886;8.728;2023-01-23T13:16:55;2.60;98.50
2867;DHT22;1441;48.886;8.728;2023-01-23T13:19:29;2.70;98.50
2867;DHT22;1441;48.886;8.728;2023-01-23T13:22:21;2.60;98.40
2867;DHT22;1441;48.886;8.728;2023-01-23T13:24:53;2.70;98.10
2867;DHT22;1441;48.886;8.728;2023-01-23T13:33:16;2.60;97.70
2867;DHT22;1441;48.886;8.728;2023-01-23T13:46:31;2.20;99.40
2867;DHT22;1441;48.886;8.728;2023-01-23T13:52:17;2.10;99.90
2867;DHT22;1441;48.886;8.728;2023-01-23T13:55:12;2.10;99.90
2867;DHT22;1441;48.886;8.728;2023-01-23T13:57:58;2.10;99.90
2867;DHT22;1441;48.886;8.728;2023-01-23T14:00:23;2.20;99.90
2867;DHT22;1441;48.886;8.728;2023-01-23T14:03:09;2.20;99.90
2867;DHT22;1441;48.886;8.728;2023-01-23T14:06:05;2.30;99.90
2867;DHT22;1441;48.886;8.728;2023-01-23T14:08:31;2.40;99.90
2867;DHT22;1441;48.886;8.728;2023-01-23T14:10:57;2.50;99.90
2867;DHT22;1441;48.886;8.728;2023-01-23T14:13:22;2.60;99.90
2867;DHT22;1441;48.886;8.728;2023-01-23T14:15:52;2.50;99.40
2867;DHT22;1441;48.886;8.728;2023-01-23T14:18:42;2.50;99.90
2867;DHT22;1441;48.886;8.728;2023-01-23T14:21:26;2.50;99.90
2867;DHT22;1441;48.886;8.728;2023-01-23T14:23:57;2.60;99.90
2867;DHT22;1441;48.886;8.728;2023-01-23T14:26:26;2.60;99.40
2867;DHT22;1441;48.886;8.728;2023-01-23T14:28:58;2.60;99.40
2867;DHT22;1441;48.886;8.728;2023-01-23T14:31:32;2.70;99.40
2867;DHT22;1441;48.886;8.728;2023-01-23T14:34:11;2.60;99.50
2867;DHT22;1441;48.886;8.728;2023-01-23T14:36:46;2.60;99.50
2867;DHT22;1441;48.886;8.728;2023-01-23T14:39:18;2.50;99.90
2867;DHT22;1441;48.886;8.728;2023-01-23T14:41:45;2.50;99.90
2867;DHT22;1441;48.886;8.728;2023-01-23T14:44:23;2.50;99.90
2867;DHT22;1441;48.886;8.728;2023-01-23T14:46:52;2.50;99.90
2867;DHT22;1441;48.886;8.728;2023-01-23T14:49:30;2.60;99.90
2867;DHT22;1441;48.886;8.728;2023-01-23T14:52:03;2.60;99.90
2867;DHT22;1441;48.886;8.728;2023-01-23T14:54:30;2.60;99.90
2867;DHT22;1441;48.886;8.728;2023-01-23T14:56:57;2.60;99.90
2867;DHT22;1441;48.886;8.728;2023-01-23T14:59:31;2.70;99.90
2867;DHT22;1441;48.886;8.728;2023-01-23T15:02:00;2.60;99.90
2867;DHT22;1441;48.886;8.728;2023-01-23T15:04:27;2.60;99.90
2867;DHT22;1441;48.886;8.728;2023-01-23T15:06:58;2.50;99.90
2867;DHT22;1441;48.886;8.728;2023-01-23T15:09:31;2.60;99.90
2867;DHT22;1441;48.886;8.728;2023-01-23T15:12:05;2.50;99.90
2867;DHT22;1441;48.886;8.728;2023-01-23T15:14:37;2.40;99.90
2867;DHT22;1441;48.886;8.728;2023-01-23T15:17:05;2.40;99.90
2867;DHT22;1441;48.886;8.728;2023-01-23T15:19:34;2.50;99.90
2867;DHT22;1441;48.886;8.728;2023-01-23T15:24:30;2.60;99.90
2867;DHT22;1441;48.886;8.728;2023-01-23T15:26:59;2.50;99.90
2867;DHT22;1441;48.886;8.728;2023-01-23T15:29:25;2.40;99.90
2867;DHT22;1441;48.886;8.728;2023-01-23T15:31:55;2.40;99.90
2867;DHT22;1441;48.886;8.728;2023-01-23T15:37:01;2.40;99.90
2867;DHT22;1441;48.886;8.728;2023-01-23T15:44:41;2.10;99.90
2867;DHT22;1441;48.886;8.728;2023-01-23T15:47:07;2.00;99.90
2867;DHT22;1441;48.886;8.728;2023-01-23T15:49:35;2.00;99.90
2867;DHT22;1441;48.886;8.728;2023-01-23T15:52:13;2.00;99.90
2867;DHT22;1441;48.886;8.728;2023-01-23T15:54:40;2.00;99.90
2867;DHT22;1441;48.886;8.728;2023-01-23T15:57:06;1.90;99.90
2867;DHT22;1441;48.886;8.728;2023-01-23T15:59:32;1.90;99.90
2867;DHT22;1441;48.886;8.728;2023-01-23T16:02:06;1.90;99.90
2867;DHT22;1441;48.886;8.728;2023-01-23T16:04:32;2.00;99.90
2867;DHT22;1441;48.886;8.728;2023-01-23T16:07:02;2.00;99.90
2867;DHT22;1441;48.886;8.728;2023-01-23T16:09:32;2.00;99.90
2867;DHT22;1441;48.886;8.728;2023-01-23T16:11:58;2.10;99.90
2867;DHT22;1441;48.886;8.728;2023-01-23T16:14:24;2.10;99.90
2867;DHT22;1441;48.886;8.728;2023-01-23T16:16:50;2.10;99.90
2867;DHT22;1441;48.886;8.728;2023-01-23T16:19:16;2.00;99.90
2867;DHT22;1441;48.886;8.728;2023-01-23T16:21:42;2.00;99.90
2867;DHT22;1441;48.886;8.728;2023-01-23T16:24:17;2.10;99.90
2867;DHT22;1441;48.886;8.728;2023-01-23T16:26:44;2.10;99.90
2867;DHT22;1441;48.886;8.728;2023-01-23T16:29:27;2.00;99.90
2867;DHT22;1441;48.886;8.728;2023-01-23T16:31:53;2.00;99.90
2867;DHT22;1441;48.886;8.728;2023-01-23T16:34:19;2.10;99.90
2867;DHT22;1441;48.886;8.728;2023-01-23T16:36:45;2.10;99.90
2867;DHT22;1441;48.886;8.728;2023-01-23T16:39:18;2.10;99.90
2867;DHT22;1441;48.886;8.728;2023-01-23T16:41:44;2.10;99.90
2867;DHT22;1441;48.886;8.728;2023-01-23T16:44:13;2.00;99.90
2867;DHT22;1441;48.886;8.728;2023-01-23T16:46:42;2.00;99.90
2867;DHT22;1441;48.886;8.728;2023-01-23T16:49:07;2.10;99.90
2867;DHT22;1441;48.886;8.728;2023-01-23T16:51:34;2.10;99.90
2867;DHT22;1441;48.886;8.728;2023-01-23T16:54:00;2.10;99.90
2867;DHT22;1441;48.886;8.728;2023-01-23T16:56:31;2.10;99.90
2867;DHT22;1441;48.886;8.728;2023-01-23T16:58:58;2.10;99.90
2867;DHT22;1441;48.886;8.728;2023-01-23T17:01:24;2.10;99.90
2867;DHT22;1441;48.886;8.728;2023-01-23T17:04:01;2.20;99.90
2867;DHT22;1441;48.886;8.728;2023-01-23T17:06:28;2.20;99.90
2867;DHT22;1441;48.886;8.728;2023-01-23T17:08:53;2.20;99.90
2867;DHT22;1441;48.886;8.728;2023-01-23T17:11:23;2.20;99.90
2867;DHT22;1441;48.886;8.728;2023-01-23T17:14:38;2.30;99.90
2867;DHT22;1441;48.886;8.728;2023-01-23T17:16:39;2.30;99.90
2867;DHT22;1441;48.886;8.728;2023-01-23T17:19:29;2.30;99.90
2867;DHT22;1441;48.886;8.728;2023-01-23T17:21:57;2.40;99.90
2867;DHT22;1441;48.886;8.728;2023-01-23T17:24:23;2.50;99.90
2867;DHT22;1441;48.886;8.728;2023-01-23T17:26:48;2.50;99.90
2867;DHT22;1441;48.886;8.728;2023-01-23T17:29:14;2.50;99.90
2867;DHT22;1441;48.886;8.728;2023-01-23T17:31:40;2.60;99.90
2867;DHT22;1441;48.886;8.728;2023-01-23T17:34:08;2.60;99.90
2867;DHT22;1441;48.886;8.728;2023-01-23T17:36:41;2.60;99.90
2867;DHT22;1441;48.886;8.728;2023-01-23T17:39:09;2.50;99.90
2867;DHT22;1441;48.886;8.728;2023-01-23T17:41:35;2.50;99.90
2867;DHT22;1441;48.886;8.728;2023-01-23T17:44:00;2.50;99.90
2867;DHT22;1441;48.886;8.728;2023-01-23T17:46:28;2.50;99.90
2867;DHT22;1441;48.886;8.728;2023-01-23T17:48:55;2.60;99.90
2867;DHT22;1441;48.886;8.728;2023-01-23T17:51:22;2.60;99.90
2867;DHT22;1441;48.886;8.728;2023-01-23T17:53:49;2.50;99.90
2867;DHT22;1441;48.886;8.728;2023-01-23T17:56:14;2.50;99.90
2867;DHT22;1441;48.886;8.728;2023-01-23T17:58:40;2.50;99.90
2867;DHT22;1441;48.886;8.728;2023-01-23T18:01:23;2.60;99.90
2867;DHT22;1441;48.886;8.728;2023-01-23T18:03:50;2.60;99.90